createdAt,value
2024-03-03T00:00:14.978Z,22.40
2024-03-03T00:04:17.261Z,20.13
2024-03-03T00:08:19.433Z,19.10
2024-03-03T00:12:21.609Z,20.53
2024-03-03T00:16:23.831Z,20.17
2024-03-03T00:20:26.017Z,19.83
2024-03-03T00:24:28.208Z,20.60
2024-03-03T00:28:30.341Z,20.37
2024-03-03T00:32:32.541Z,20.87
2024-03-03T00:36:34.776Z,21.50
2024-03-03T00:40:37.166Z,19.90
2024-03-03T00:44:39.326Z,21.07
2024-03-03T00:48:41.478Z,20.77
2024-03-03T00:52:43.659Z,21.47
2024-03-03T00:56:45.890Z,21.60
2024-03-03T01:00:48.080Z,21.43
2024-03-03T01:04:53.151Z,21.50
2024-03-03T01:08:55.313Z,22.40
2024-03-03T01:12:57.677Z,22.97
2024-03-03T01:16:59.957Z,22.97
2024-03-03T01:21:02.878Z,21.97
2024-03-03T01:25:05.386Z,21.03
2024-03-03T01:29:07.555Z,22.43
2024-03-03T01:33:09.776Z,21.37
2024-03-03T01:37:12.080Z,21.93
2024-03-03T01:41:14.228Z,22.10
2024-03-03T01:45:22.330Z,21.60
2024-03-03T01:49:24.860Z,21.33
2024-03-03T01:53:27.664Z,21.37
2024-03-03T01:57:29.888Z,22.70
2024-03-03T02:01:32.960Z,20.70
2024-03-03T02:05:38.442Z,21.73
2024-03-03T02:09:43.304Z,21.47
2024-03-03T02:13:45.917Z,21.20
2024-03-03T02:17:48.513Z,21.17
2024-03-03T02:21:50.779Z,21.50
2024-03-03T02:25:53.008Z,22.53
2024-03-03T02:29:55.217Z,21.93
2024-03-03T02:33:57.402Z,22.17
2024-03-03T02:37:59.626Z,22.87
2024-03-03T02:42:01.952Z,21.17
2024-03-03T02:46:04.181Z,20.80
2024-03-03T02:50:06.660Z,20.47
2024-03-03T02:54:08.870Z,22.03
2024-03-03T02:58:11.085Z,21.37
2024-03-03T03:02:13.283Z,20.80
2024-03-03T03:06:15.442Z,20.83
2024-03-03T03:10:17.906Z,20.90
2024-03-03T03:14:20.407Z,20.97
2024-03-03T03:18:22.562Z,21.13
2024-03-03T03:22:25.107Z,21.13
2024-03-03T03:26:27.475Z,20.77
2024-03-03T03:30:29.589Z,21.53
2024-03-03T03:34:31.770Z,22.27
2024-03-03T03:38:33.905Z,21.47
2024-03-03T03:42:36.079Z,21.33
2024-03-03T03:46:38.219Z,21.90
2024-03-03T03:50:40.381Z,22.03
2024-03-03T03:54:42.641Z,22.27
2024-03-03T03:58:44.776Z,22.30
2024-03-03T04:02:47.802Z,21.47
2024-03-03T04:06:50.098Z,21.60
2024-03-03T04:10:52.402Z,21.80
2024-03-03T04:14:54.643Z,22.53
2024-03-03T04:18:56.801Z,23.03
2024-03-03T04:22:58.962Z,23.40
2024-03-03T04:27:01.170Z,22.83
2024-03-03T04:31:06.712Z,22.37
2024-03-03T04:35:09.255Z,23.73
2024-03-03T04:39:11.468Z,22.67
2024-03-03T04:43:13.728Z,22.37
2024-03-03T04:47:16.008Z,21.77
2024-03-03T04:51:18.122Z,22.60
2024-03-03T04:55:20.390Z,22.70
2024-03-03T04:59:22.590Z,21.07
2024-03-03T05:03:25.686Z,23.07
2024-03-03T05:07:27.917Z,23.47
2024-03-03T05:11:30.106Z,23.80
2024-03-03T05:15:32.714Z,23.07
2024-03-03T05:19:34.884Z,23.60
2024-03-03T05:23:37.000Z,23.53
2024-03-03T05:27:39.246Z,22.20
2024-03-03T05:31:42.212Z,22.90
2024-03-03T05:35:44.422Z,22.77
2024-03-03T05:39:46.694Z,21.97
2024-03-03T05:43:48.927Z,22.37
2024-03-03T05:47:51.133Z,23.60
2024-03-03T05:51:53.492Z,22.83
2024-03-03T05:55:55.690Z,22.97
2024-03-03T05:59:57.877Z,23.17
2024-03-03T06:04:00.111Z,23.93
2024-03-03T06:08:02.921Z,22.70
2024-03-03T06:12:05.282Z,23.37
2024-03-03T06:16:07.464Z,22.87
2024-03-03T06:20:09.732Z,23.37
2024-03-03T06:24:11.889Z,24.60
2024-03-03T06:28:14.146Z,22.40
2024-03-03T06:32:16.371Z,36.33
2024-03-03T06:36:19.011Z,32.07
2024-03-03T06:40:21.304Z,23.63
2024-03-03T06:44:23.489Z,24.67
2024-03-03T06:48:25.672Z,23.57
2024-03-03T06:52:28.370Z,22.93
2024-03-03T06:56:30.594Z,24.83
2024-03-03T07:00:32.851Z,24.47
2024-03-03T07:04:35.060Z,24.63
2024-03-03T07:08:37.196Z,22.37
2024-03-03T07:12:39.370Z,27.57
2024-03-03T07:16:41.595Z,22.33
2024-03-03T07:20:43.743Z,23.77
2024-03-03T07:24:45.988Z,23.00
2024-03-03T07:28:48.156Z,22.97
2024-03-03T07:32:50.334Z,22.50
2024-03-03T07:36:52.621Z,21.33
2024-03-03T07:40:54.796Z,22.43
2024-03-03T07:44:56.966Z,19.93
2024-03-03T07:48:59.078Z,20.37
2024-03-03T07:53:01.360Z,20.03
2024-03-03T07:57:03.520Z,20.43
2024-03-03T08:01:06.275Z,19.53
2024-03-03T08:05:08.652Z,19.97
2024-03-03T08:09:11.023Z,18.47
2024-03-03T08:13:13.279Z,20.07
2024-03-03T08:17:15.512Z,17.93
2024-03-03T08:21:17.716Z,18.53
2024-03-03T08:25:20.254Z,16.63
2024-03-03T08:29:22.484Z,18.40
2024-03-03T08:33:24.696Z,16.47
2024-03-03T08:37:26.966Z,18.30
2024-03-03T08:41:29.136Z,16.83
2024-03-03T08:45:31.332Z,18.00
2024-03-03T08:49:33.488Z,16.43
2024-03-03T08:53:35.716Z,19.27
2024-03-03T08:57:37.854Z,16.07
2024-03-03T09:01:40.182Z,16.50
2024-03-03T09:05:42.313Z,16.23
2024-03-03T09:09:46.621Z,16.03
2024-03-03T09:13:50.418Z,16.83
2024-03-03T09:17:52.673Z,15.40
2024-03-03T09:21:54.901Z,15.20
2024-03-03T09:25:57.093Z,14.40
2024-03-03T09:29:59.339Z,15.13
2024-03-03T09:34:01.534Z,13.27
2024-03-03T09:38:03.750Z,14.80
2024-03-03T09:42:06.163Z,14.40
2024-03-03T09:46:10.414Z,12.93
2024-03-03T09:50:15.496Z,13.10
2024-03-03T09:54:20.201Z,12.63
2024-03-03T09:58:22.443Z,13.17
2024-03-03T10:02:25.985Z,13.33
2024-03-03T10:06:28.484Z,11.90
2024-03-03T10:10:30.838Z,13.23
2024-03-03T10:14:33.081Z,11.57
2024-03-03T10:18:35.258Z,10.52
2024-03-03T10:22:37.411Z,11.30
2024-03-03T10:26:39.595Z,11.82
2024-03-03T10:30:41.818Z,10.75
2024-03-03T10:34:44.002Z,11.00
2024-03-03T10:38:46.227Z,10.60
2024-03-03T10:42:48.449Z,9.65
2024-03-03T10:46:51.461Z,10.25
2024-03-03T10:50:53.830Z,10.43
2024-03-03T10:54:56.024Z,10.48
2024-03-03T10:58:58.182Z,10.35
2024-03-03T11:03:01.025Z,9.57
2024-03-03T11:07:03.956Z,9.18
2024-03-03T11:11:07.845Z,10.10
2024-03-03T11:15:13.208Z,9.80
2024-03-03T11:19:18.847Z,10.25
2024-03-03T11:23:41.231Z,9.73
2024-03-03T11:27:44.908Z,8.90
2024-03-03T11:31:47.861Z,8.68
2024-03-03T11:35:51.365Z,10.20
2024-03-03T11:39:56.247Z,10.55
2024-03-03T11:43:58.488Z,12.48
2024-03-03T11:48:03.885Z,10.32
2024-03-03T11:52:06.125Z,11.13
2024-03-03T11:56:18.721Z,11.63
2024-03-03T12:00:21.855Z,10.30
2024-03-03T12:04:24.057Z,10.07
2024-03-03T12:08:26.683Z,8.18
2024-03-03T12:12:29.871Z,9.20
2024-03-03T12:16:32.538Z,9.60
2024-03-03T12:20:34.714Z,8.73
2024-03-03T12:24:37.807Z,8.52
2024-03-03T12:28:40.087Z,8.10
2024-03-03T12:32:42.350Z,9.05
2024-03-03T12:36:44.971Z,8.52
2024-03-03T12:40:47.347Z,8.70
2024-03-03T12:44:51.933Z,7.85
2024-03-03T12:48:55.379Z,9.48
2024-03-03T12:52:57.677Z,10.30
2024-03-03T12:56:59.931Z,11.23
2024-03-03T13:01:02.204Z,11.98
2024-03-03T13:05:04.483Z,11.52
2024-03-03T13:09:06.717Z,10.82
2024-03-03T13:13:09.367Z,12.90
2024-03-03T13:17:12.208Z,12.68
2024-03-03T13:21:14.413Z,11.68
2024-03-03T13:25:16.684Z,13.27
2024-03-03T13:29:19.113Z,12.50
2024-03-03T13:33:24.159Z,11.57
2024-03-03T13:37:26.880Z,11.88
2024-03-03T13:41:29.123Z,11.55
2024-03-03T13:45:31.256Z,11.90
2024-03-03T13:49:43.268Z,11.77
2024-03-03T13:53:45.486Z,12.23
2024-03-03T13:57:47.838Z,11.98
2024-03-03T14:01:50.147Z,11.30
2024-03-03T14:05:52.343Z,12.10
2024-03-03T14:09:54.464Z,14.02
2024-03-03T14:13:56.695Z,13.80
2024-03-03T14:17:59.171Z,12.45
2024-03-03T14:22:01.526Z,12.48
2024-03-03T14:26:03.714Z,12.55
2024-03-03T14:30:06.428Z,11.35
2024-03-03T14:34:08.557Z,11.90
2024-03-03T14:38:10.698Z,12.30
2024-03-03T14:42:12.826Z,12.13
2024-03-03T14:46:15.179Z,11.63
2024-03-03T14:50:17.488Z,12.68
2024-03-03T14:54:19.618Z,11.90
2024-03-03T14:58:21.797Z,10.75
2024-03-03T15:02:23.941Z,14.02
2024-03-03T15:06:26.106Z,12.40
2024-03-03T15:10:28.460Z,11.23
2024-03-03T15:14:30.716Z,10.55
2024-03-03T15:18:32.821Z,10.27
2024-03-03T15:22:35.000Z,10.25
2024-03-03T15:26:37.160Z,9.45
2024-03-03T15:30:39.231Z,8.88
2024-03-03T15:34:41.530Z,7.93
2024-03-03T15:38:43.767Z,7.47
2024-03-03T15:42:45.926Z,7.93
2024-03-03T15:46:49.181Z,7.28
2024-03-03T15:50:51.330Z,6.80
2024-03-03T15:54:53.681Z,7.63
2024-03-03T15:58:55.840Z,12.10
2024-03-03T16:02:57.954Z,11.45
2024-03-03T16:07:00.187Z,13.50
2024-03-03T16:11:02.454Z,13.57
2024-03-03T16:15:04.745Z,13.85
2024-03-03T16:19:07.026Z,13.05
2024-03-03T16:23:09.331Z,13.45
2024-03-03T16:27:12.960Z,13.60
2024-03-03T16:31:15.144Z,19.05
2024-03-03T16:35:17.386Z,12.68
2024-03-03T16:39:19.555Z,14.20
2024-03-03T16:43:21.828Z,11.93
2024-03-03T16:47:23.990Z,13.55
2024-03-03T16:51:26.152Z,16.15
2024-03-03T16:55:28.386Z,17.27
2024-03-03T16:59:30.727Z,15.23
2024-03-03T17:03:32.876Z,12.15
2024-03-03T17:07:35.349Z,12.73
2024-03-03T17:11:37.508Z,11.50
2024-03-03T17:15:39.689Z,11.68
2024-03-03T17:19:42.030Z,15.48
2024-03-03T17:23:44.160Z,13.23
2024-03-03T17:27:46.341Z,13.38
2024-03-03T17:31:48.539Z,9.95
2024-03-03T17:35:50.717Z,10.60
2024-03-03T17:39:52.981Z,11.00
2024-03-03T17:43:55.158Z,11.40
2024-03-03T17:47:57.331Z,10.68
2024-03-03T17:51:59.617Z,8.68
2024-03-03T17:56:02.424Z,11.13
2024-03-03T18:00:04.937Z,8.05
2024-03-03T18:04:14.735Z,11.07
2024-03-03T18:08:16.896Z,9.40
2024-03-03T18:12:19.124Z,12.00
2024-03-03T18:16:21.801Z,7.70
2024-03-03T18:20:23.949Z,9.77
2024-03-03T18:24:26.208Z,8.38
2024-03-03T18:28:28.534Z,13.82
2024-03-03T18:32:33.624Z,8.32
2024-03-03T18:36:36.997Z,7.70
2024-03-03T18:40:39.279Z,10.05
2024-03-03T18:44:41.695Z,9.18
2024-03-03T18:48:43.832Z,7.20
2024-03-03T18:52:45.928Z,10.82
2024-03-03T18:56:48.112Z,10.75
2024-03-03T19:00:50.577Z,8.80
2024-03-03T19:04:52.791Z,13.70
2024-03-03T19:08:54.948Z,9.65
2024-03-03T19:12:57.139Z,8.55
2024-03-03T19:16:59.302Z,10.68
2024-03-03T19:21:01.408Z,10.20
2024-03-03T19:25:03.893Z,9.68
2024-03-03T19:29:06.145Z,11.70
2024-03-03T19:33:08.314Z,10.27
2024-03-03T19:37:10.631Z,15.80
2024-03-03T19:41:12.832Z,8.32
2024-03-03T19:45:15.018Z,11.13
2024-03-03T19:49:17.315Z,17.38
2024-03-03T19:53:19.708Z,11.63
2024-03-03T19:57:21.873Z,9.85
2024-03-03T20:01:24.197Z,14.68
2024-03-03T20:05:26.512Z,10.00
2024-03-03T20:13:13.544Z,9.00
2024-03-03T20:17:15.772Z,10.07
2024-03-03T20:21:18.124Z,9.13
2024-03-03T20:25:20.451Z,9.60
2024-03-03T20:29:22.701Z,13.68
2024-03-03T20:33:24.955Z,14.60
2024-03-03T20:37:27.577Z,11.38
2024-03-03T20:41:29.898Z,10.55
2024-03-03T20:45:32.135Z,14.45
2024-03-03T20:49:34.385Z,10.35
2024-03-03T20:53:36.624Z,9.88
2024-03-03T20:57:39.563Z,10.32
2024-03-03T21:01:41.784Z,16.30
2024-03-03T21:05:44.062Z,10.65
2024-03-03T21:09:46.295Z,9.15
2024-03-03T21:13:48.512Z,9.00
2024-03-03T21:17:50.668Z,6.88
2024-03-03T21:21:52.882Z,7.53
2024-03-03T21:25:55.243Z,12.40
2024-03-03T21:29:57.401Z,11.25
2024-03-03T21:33:59.539Z,11.43
2024-03-03T21:38:01.787Z,6.70
2024-03-03T21:42:03.991Z,12.45
2024-03-03T21:46:06.228Z,10.27
2024-03-03T21:50:08.617Z,10.77
2024-03-03T21:54:10.757Z,10.65
2024-03-03T21:58:12.956Z,11.02
2024-03-03T22:02:15.434Z,9.77
2024-03-03T22:06:17.717Z,9.93
2024-03-03T22:10:19.868Z,10.60
2024-03-03T22:14:22.020Z,11.25
2024-03-03T22:18:24.185Z,12.60
2024-03-03T22:22:26.433Z,10.98
2024-03-03T22:26:29.769Z,11.48
2024-03-03T22:30:32.115Z,10.25
2024-03-03T22:34:34.409Z,10.75
2024-03-03T22:38:36.573Z,11.02
2024-03-03T22:42:39.136Z,11.35
2024-03-03T22:46:41.384Z,10.93
2024-03-03T22:50:43.649Z,11.00
2024-03-03T22:54:45.760Z,10.15
2024-03-03T22:58:52.114Z,11.48
2024-03-03T23:02:55.940Z,11.27
2024-03-03T23:06:58.125Z,10.75
2024-03-03T23:11:00.364Z,12.63
2024-03-03T23:15:02.607Z,9.88
2024-03-03T23:19:05.743Z,11.50
2024-03-03T23:23:07.970Z,10.50
2024-03-03T23:27:10.104Z,10.68
2024-03-03T23:36:21.829Z,10.43
2024-03-03T23:40:24.005Z,16.25
2024-03-03T23:44:26.180Z,10.40
2024-03-03T23:48:28.970Z,11.18
2024-03-03T23:52:31.231Z,12.43
2024-03-03T23:56:33.421Z,13.70
